ソチ空港の過去48時間の天気

ソチ空港 (Adler)

現在時刻: 7/17 12:31 MSK (7/17 09:31 UTC) 以下の時間は現地時間です。

過去48時間のMETAR気象情報
時間 風向 風速(m/s) 視程 気温(℃) 湿度(%) 気圧(hPa) 天気現象
17 12:00 西 5 10km以上 25 54 1007
17 11:30 西 4 10km以上 25 54 1007
17 11:00 西 4 10km以上 25 57 1007
17 10:30 西 4 10km以上 24 57 1007
17 10:00 西 3 10km以上 24 61 1007
17 09:30 西 3 10km以上 24 61 1007
17 09:00 1 10km以上 24 54 1007
17 08:30 北東 3 10km以上 22 60 1007
17 08:00 北北東 4 10km以上 21 64 1008
17 07:30 北東 5 10km以上 20 68 1008
17 07:00 北東 5 10km以上 19 68 1008
17 06:30 北東 4 10km以上 19 73 1008
17 06:00 北東 4 10km以上 18 73 1008
17 05:30 北東 5 10km以上 17 77 1008
17 05:00 北東 5 10km以上 17 83 1008
17 04:30 北東 5 10km以上 17 83 1009
17 04:00 北東 5 10km以上 17 83 1009
17 03:30 北東 5 10km以上 17 83 1009
17 03:00 北東 5 10km以上 17 83 1009
17 02:30 北東 4 10km以上 17 88 1009
17 02:00 北東 4 10km以上 17 88 1009
17 01:30 北東 5 10km以上 18 83 1009
17 01:00 北東 4 10km以上 18 83 1009
17 00:30 北東 4 10km以上 18 88 1010
17 00:00 北東 4 10km以上 18 88 1010
16 23:30 北東 3 10km以上 18 88 1010
16 23:00 北東 5 10km以上 18 88 1010
16 22:30 北北東 3 10km以上 18 88 1010
16 22:00 北東 4 10km以上 18 94 1010
16 21:30 北東 4 10km以上 19 88 1010
16 21:00 北東 3 10km以上 19 88 1010
16 20:30 北東 4 10km以上 19 88 1010
16 20:00 北北東 3 10km以上 20 83 1010
16 19:30 北北東 4 10km以上 21 78 1010
16 19:00 北北東 3 10km以上 22 73 1010
16 18:30 北西 2 10km以上 23 65 1010
16 18:00 南東 1 10km以上 23 69 1010
16 17:30 2 10km以上 23 69 1010
16 17:00 南東 2 10km以上 23 69 1010
16 16:30 3 10km以上 23 73 1010
16 16:00 3 10km以上 23 69 1010
16 15:30 南東 3 10km以上 23 69 1010
16 15:00 東南東 4 10km以上 23 69 1010
16 14:30 南東 5 10km以上 23 73 1009
16 14:00 南南東 6 10km以上 22 73 1009 弱いしゅう雨
16 13:30 南南東 5 10km以上 24 69 1009
16 13:00 南南東 6 10km以上 23 73 1009
16 12:30 南南東 6 10km以上 23 73 1009
16 12:00 南南東 4 10km以上 23 73 1009
16 11:30 南南東 4 10km以上 22 78 1008 弱いしゅう雨
16 11:00 南東 4 10km以上 21 83 1008 弱いしゅう雨
16 10:30 南東 3 4600m 19 94 1008 弱いしゅう雨
16 10:00 東南東 3 5000m 19 94 1008 弱いしゅう雨
16 09:30 4 7000m 19 94 1008 弱いしゅう雨
16 09:00 4 6000m 19 88 1008 弱いしゅう雨
16 08:30 北東 5 9000m 19 88 1007 弱いしゅう雨
16 08:00 北北西 2 1500m 18 94 1007 強いしゅう雨
16 07:30 4 10km以上 19 88 1007 弱いしゅう雨
16 07:00 東南東 4 10km以上 19 88 1007 弱いしゅう雨
16 06:30 南東 3 10km以上 19 88 1007 弱いしゅう雨
16 06:00 南東 3 4500m 19 94 1007 弱いしゅう雨
16 05:30 北北東 1 10km以上 18 94 1007 弱いしゅう雨
16 05:00 東北東 2 10km以上 19 88 1006 弱いしゅう雨
16 04:30 東北東 3 3700m 18 94 1006 周辺で雷 弱いしゅう雨
16 04:00 東北東 4 4900m 18 94 1006 弱いしゅう雨
16 03:30 南南東 4 8000m 19 88 1007 周辺で雷 弱いしゅう雨
16 03:00 南東 4 6000m 19 88 1006 弱いしゅう雨
16 02:30 東南東 4 5000m 20 83 1006 弱いしゅう雨
16 02:00 東南東 3 10km以上 20 83 1006 弱いしゅう雨
16 01:30 4 10km以上 20 88 1006
16 01:00 東北東 1 10km以上 19 94 1006 弱いしゅう雨
16 00:30 北北東 4 10km以上 19 94 1006 周辺で雷 弱いしゅう雨
16 00:00 北北東 2 10km以上 19 94 1006 周辺で雷 弱いしゅう雨
15 23:30 南東 2 4800m 20 88 1007 弱いしゅう雨
15 23:00 北東 3 10km以上 19 94 1006
15 22:30 東北東 2 10km以上 20 83 1007
15 22:00 南東 3 10km以上 22 73 1006
15 21:30 北北東 3 10km以上 20 88 1006
15 21:00 北東 3 10km以上 20 88 1006
15 20:30 1 10km以上 20 88 1006
15 20:00 北東 2 10km以上 20 88 1006
15 19:30 静穏 0 10km以上 21 83 1005
15 19:00 東北東 2 10km以上 22 78 1004
15 18:30 3 10km以上 22 78 1004
15 18:00 北北東 2 10km以上 23 73 1004
15 17:30 北東 2 10km以上 21 83 1004
15 17:00 南東 2 10km以上 21 83 1005 弱いしゅう雨
15 16:30 北東 4 10km以上 20 88 1003 弱いしゅう雨
15 16:00 北東 4 10km以上 20 88 1004
15 15:30 北北東 5 10km以上 20 88 1003
15 15:00 北東 5 10km以上 20 83 1004 弱いしゅう雨
15 14:30 北東 4 10km以上 19 88 1003 弱いしゅう雨
15 14:00 北東 5 10km以上 19 94 1004 弱いしゅう雨
15 13:30 北北東 3 5000m 20 88 1003 弱いしゅう雨
15 13:00 静穏 0 10km以上 21 83 1003 弱いしゅう雨
URSS 170900Z 27005MPS 9999 NSC 25/15 Q1007 WS ALL RWY R02/010070 R06/010070 NOSIG RMK R06/28006MPS QFE754
URSS 170830Z 27004MPS 9999 NSC 25/15 Q1007 WS ALL RWY R02/010070 R06/010070 NOSIG RMK R06/29005G09MPS QFE754
URSS 170800Z 26004MPS 9999 NSC 25/16 Q1007 WS ALL RWY R02/010070 R06/010070 NOSIG RMK R06/28005MPS QFE754
URSS 170730Z 28004MPS 9999 NSC 24/15 Q1007 R02/010070 R06/010070 NOSIG RMK R06/28004MPS QFE754
URSS 170700Z 27003MPS 9999 NSC 24/16 Q1007 R02/010070 R06/010070 NOSIG RMK R06/28004G09MPS QFE754
URSS 170630Z 26003MPS 230V300 9999 NSC 24/16 Q1007 R02/010070 R06/010070 NOSIG RMK R06/28003MPS QFE754
URSS 170600Z 10001MPS 9999 NSC 24/14 Q1007 R02/010070 R06/010070 NOSIG RMK R06/28003MPS QFE754
URSS 170530Z 04003MPS 9999 NSC 22/14 Q1007 R02/010070 R06/010070 NOSIG RMK R06/31003G06MPS QFE754
URSS 170500Z 03004MPS 9999 NSC 21/14 Q1008 R02/010070 R06/010070 NOSIG RMK R06/31001MPS QFE754
URSS 170430Z 04005MPS 9999 NSC 20/14 Q1008 R02/010070 R06/010070 NOSIG RMK R06/26001MPS QFE754
URSS 170400Z 04005MPS 9999 NSC 19/13 Q1008 R02/010070 R06/010070 NOSIG RMK R06/05003MPS QFE755
URSS 170330Z 04004MPS 9999 NSC 19/14 Q1008 R02/010070 R06/010070 NOSIG RMK R06/06004MPS QFE755
URSS 170300Z 04004MPS 9999 NSC 18/13 Q1008 R02/010070 R06/010070 NOSIG RMK R06/05003MPS QFE755
URSS 170230Z 05005MPS 9999 NSC 17/13 Q1008 R02/010070 R06/010070 NOSIG RMK R06/07004MPS QFE755
URSS 170200Z 04005MPS 9999 NSC 17/14 Q1008 R02/010070 R06/010070 NOSIG RMK R06/35001MPS QFE755
URSS 170130Z 04005MPS 9999 NSC 17/14 Q1009 R02/010070 R06/010070 NOSIG RMK R06/06004MPS QFE755
URSS 170100Z 04005MPS 9999 NSC 17/14 Q1009 R02/010070 R06/010070 NOSIG RMK R06/06004MPS QFE755
URSS 170030Z 04005MPS 9999 NSC 17/14 Q1009 R02/010070 R06/010070 NOSIG RMK R06/06003MPS QFE755
URSS 170000Z 04005MPS 9999 NSC 17/14 Q1009 R02/010070 R06/010070 NOSIG RMK R06/08005MPS QFE755
URSS 162330Z 05004MPS 9999 FEW050 17/15 Q1009 R02/010070 R06/010070 NOSIG RMK R06/06003MPS QFE755
URSS 162300Z 04004MPS 9999 FEW050 17/15 Q1009 R02/010070 R06/010070 NOSIG RMK R06/07004MPS QFE755
URSS 162230Z 04005MPS 9999 FEW050 18/15 Q1009 R02/010070 R06/010070 NOSIG RMK R06/06004MPS QFE756
URSS 162200Z 05004MPS 9999 FEW050 18/15 Q1009 R02/010070 R06/010070 NOSIG RMK R06/36001MPS QFE756
URSS 162130Z 04004MPS 9999 FEW050 18/16 Q1010 R02/010070 R06/010070 NOSIG RMK R06/05003MPS QFE756
URSS 162100Z 04004MPS 9999 FEW050 18/16 Q1010 R02/010070 R06/010070 NOSIG RMK R06/06004MPS QFE756
URSS 162030Z 04003MPS 9999 NSC 18/16 Q1010 R02/010070 R06/010070 NOSIG RMK R06/07004MPS QFE756
URSS 162000Z 04005MPS 9999 NSC 18/16 Q1010 R02/010070 R06/010070 NOSIG RMK R06/07004MPS QFE756
URSS 161930Z 03003MPS 9999 NSC 18/16 Q1010 R02/010070 R06/010070 NOSIG RMK R06/34001MPS QFE756
URSS 161900Z 04004MPS 9999 NSC 18/17 Q1010 R02/010070 R06/010070 NOSIG RMK R06/33001MPS QFE756
URSS 161830Z 04004MPS 9999 NSC 19/17 Q1010 R02/010070 R06/010070 NOSIG RMK R06/08004MPS QFE756
URSS 161800Z 04003MPS 9999 NSC 19/17 Q1010 R02/010070 R06/010070 NOSIG RMK R06/09001MPS QFE756
URSS 161730Z 04004MPS 9999 FEW100 19/17 Q1010 R02/010070 R06/010070 NOSIG RMK R06/35001MPS QFE756
URSS 161700Z 03003MPS 9999 FEW030CB SCT100 20/17 Q1010 WS ALL RWY R02/010070 R06/010070 NOSIG RMK R06/04002MPS MT OBSC QFE756
URSS 161630Z 03004MPS 9999 SCT030CB BKN080 21/17 Q1010 WS ALL RWY R02/010070 R06/010070 NOSIG RMK R06/05003MPS MT OBSC QFE756
URSS 161600Z 03003MPS 9999 SCT030CB BKN080 22/17 Q1010 WS ALL RWY R02/010070 R06/010070 NOSIG RMK R06/33001MPS MT OBSC QFE756
URSS 161530Z 31002MPS 270V340 9999 SCT038CB BKN080 23/16 Q1010 WS ALL RWY R02/010070 R06/010070 NOSIG RMK R06/25002MPS MT OBSC QFE756
URSS 161500Z 14001MPS 9999 SCT038CB BKN080 23/17 Q1010 WS ALL RWY R02/010070 R06/010070 NOSIG RMK R06/15001MPS MT OBSC QFE756
URSS 161430Z 10002MPS 060V160 9999 SCT039CB BKN076 23/17 Q1010 WS ALL RWY R02/010070 R06/010070 NOSIG RMK R06/15003MPS MT OBSC QFE756
URSS 161400Z 13002MPS 090V170 9999 SCT033CB BKN076 23/17 Q1010 WS ALL RWY R02/010070 R06/010070 NOSIG RMK R06/14003MPS MT OBSC QFE756
URSS 161330Z 08003MPS 050V150 9999 SCT028CB BKN076 23/18 Q1010 WS ALL RWY R02/010070 R06/010070 NOSIG RMK R06/12003MPS MT OBSC QFE756
URSS 161300Z 10003MPS 060V150 9999 BKN035CB 23/17 Q1010 WS ALL RWY R02/010070 R06/010070 NOSIG RMK R06/14004G07MPS MT OBSC QFE756
URSS 161230Z 13003MPS 9999 BKN029CB 23/17 Q1010 WS ALL RWY R02/010070 R06/010070 NOSIG RMK R06/13004MPS MT OBSC QFE756
URSS 161200Z 12004MPS 9999 BKN029CB 23/17 Q1010 WS ALL RWY R02/190065 R06/190065 NOSIG RMK R06/13005MPS MT OBSC QFE756
URSS 161130Z 14005MPS 9999 BKN032CB 23/18 Q1009 WS ALL RWY R02/190065 R06/190065 TEMPO 1000 TSRA BKN006 BKN020CB RMK R06/16005MPS MT OBSC QFE756
URSS 161100Z 16006MPS 9999 -SHRA BKN022CB BKN080 22/17 Q1009 WS ALL RWY R02/010070 R06/010070 TEMPO 1000 TSRA BKN006 BKN020CB RMK R06/16005MPS MT OBSC QFE756
URSS 161030Z 16005MPS 9999 BKN022CB BKN080 24/18 Q1009 WS ALL RWY R02/010070 R06/010070 TEMPO 1000 TSRA BKN006 BKN020CB RMK R06/16006G09MPS MT OBSC QFE755
URSS 161000Z 15006MPS 9999 BKN023CB BKN080 23/18 Q1009 WS ALL RWY R02/010070 R06/010070 TEMPO 1000 TSRA BKN006 BKN020CB RMK R06/16007G10MPS MT OBSC QFE755
URSS 160930Z 15006MPS 9999 BKN024CB BKN080 23/18 Q1009 WS ALL RWY R02/010070 R06/010070 TEMPO -TSRA BKN020CB RMK R06/15006G09MPS MT OBSC QFE755
URSS 160900Z 15004MPS 110V180 9999 BKN027CB 23/18 Q1009 WS ALL RWY R02/190065 R06/290057 TEMPO -TSRA BKN020CB RMK R06/15006G10MPS MT OBSC QFE755
URSS 160830Z 15004MPS 9999 -SHRA FEW011 BKN031CB 22/18 Q1008 WS ALL RWY R02/250550 R06/250355 NOSIG RMK R06/14005MPS MT OBSC QFE755
URSS 160800Z 13004MPS 9999 -SHRA SCT015 BKN027CB 21/18 Q1008 WS ALL RWY R02/250550 R06/250355 NOSIG RMK R06/12006G09MPS MT OBSC QFE755
URSS 160730Z 13003G08MPS 050V170 4600 -SHRA SCT011 BKN024CB 19/18 Q1008 WS ALL RWY R02/250550 R06/250355 NOSIG RMK R06/13005G09MPS MT OBSC QFE755
URSS 160700Z 11003G08MPS 5000 -SHRA SCT011 BKN024CB 19/18 Q1008 WS ALL RWY R02/250550 R06/250355 NOSIG RMK R06/31002G05MPS MT OBSC QFE755
URSS 160630Z 08004MPS 7000 -SHRA SCT011 BKN024CB 19/18 Q1008 WS ALL RWY R02/250550 R06/250355 NOSIG RMK R06/07003MPS MT OBSC QFE754
URSS 160600Z 35004MPS 6000 -SHRA SCT008 BKN022CB 19/17 Q1008 WS ALL RWY R02/291043 R06/291043 NOSIG RMK R06/08004G09MPS MT OBSC QFE754
URSS 160530Z 04005MPS 020V100 9000 -SHRA FEW007 BKN029CB 19/17 Q1007 WS ALL RWY R02/291043 R06/291043 NOSIG RMK R06/03006MPS QBB210 MT OBSC QFE754
URSS 160500Z 34002MPS 270V070 1500 0900NW R02/1700U +SHRA FEW007 BKN028CB 18/17 Q1007 WS ALL RWY R02/291043 R06/291043 NOSIG RMK R06/17004G10MPS QBB210 MT OBSC QFE754
URSS 160430Z 09004G09MPS 060V160 9999 -SHRA FEW010 BKN030CB 19/17 Q1007 WS ALL RWY R02/290260 R06/290260 NOSIG RMK R06/08004G08MPS MT OBSC QFE754
URSS 160400Z 12004G10MPS 9999 -SHRA SCT008 BKN033CB 19/17 Q1007 WS ALL RWY R02/290260 R06/290260 NOSIG RMK R06/12006G09MPS MT OBSC QFE754
URSS 160330Z 13003MPS 9999 -SHRA BKN034CB 19/17 Q1007 WS ALL RWY R02/290550 R06/290550 NOSIG RMK R06/13004G07MPS MT OBSC QFE754
URSS 160300Z 13003MPS 4500 -SHRA OVC034CB 19/18 Q1007 WS ALL RWY R02/290550 R06/290550 NOSIG RMK R06/13003MPS MT OBSC QFE754
URSS 160230Z 02001MPS 9999 -SHRA OVC030CB 18/17 Q1007 WS ALL RWY R02/290550 R06/290550 NOSIG RMK R06/02002MPS MT OBSC QFE754
URSS 160200Z 07002MPS 9999 -SHRA FEW010 OVC031CB 19/17 Q1006 WS ALL RWY R02/290550 R06/290550 NOSIG RMK R06/05002MPS MT OBSC QFE753
URSS 160130Z 07003MPS 040V120 3700 VCTS -SHRA BKN008 OVC030CB 18/17 Q1006 WS ALL RWY R02/290550 R06/290550 NOSIG RMK R06/06003G06MPS MT OBSC QFE753
URSS 160100Z 07004G09MPS 010V120 4900 -SHRA BKN010 OVC021CB 18/17 Q1006 WS ALL RWY R02/290550 R06/290550 NOSIG RMK R06/09003G07MPS MT OBSC QFE753
URSS 160030Z 15004MPS 100V190 8000 VCTS -SHRA OVC023CB 19/17 Q1007 WS ALL RWY R02/290550 R06/290550 NOSIG RMK R06/14005MPS MT OBSC QFE754
URSS 160000Z 13004MPS 6000 -SHRA OVC025CB 19/17 Q1006 WS ALL RWY R02/290550 R06/290550 NOSIG RMK R06/12005G08MPS MT OBSC QFE753
URSS 152330Z 12004MPS 5000 -SHRA OVC025CB 20/17 Q1006 WS ALL RWY R02/290550 R06/290550 NOSIG RMK R06/12006G09MPS MT OBSC QFE753
URSS 152300Z 11003MPS 9999 -SHRA OVC024CB 20/17 Q1006 WS ALL RWY R02/290550 R06/290550 NOSIG RMK R06/11005MPS MT OBSC QFE753
URSS 152230Z 09004G09MPS 030V170 9999 SCT010 OVC027CB 20/18 Q1006 R02/290550 R06/290550 NOSIG RMK R06/08004MPS MT OBSC QFE753
URSS 152200Z 06001MPS 9999 -SHRA SCT010 OVC027CB 19/18 Q1006 R02/290550 R06/290550 NOSIG RMK R06/10002MPS MT OBSC QFE753
URSS 152130Z 03004MPS 9999 VCTS -SHRA SCT010 OVC027CB 19/18 Q1006 R02/290550 R06/290550 NOSIG RMK R06/05003MPS MT OBSC QFE753
URSS 152100Z 03002MPS 9999 VCTS -SHRA SCT010 OVC027CB 19/18 Q1006 R02/250550 R06/250550 NOSIG RMK R06/27002MPS MT OBSC QFE753
URSS 152030Z 13002MPS 070V230 4800 2100NW -SHRA BKN023CB OVC080 20/18 Q1007 R02/210355 R06/010070 NOSIG RMK R06/16004G07MPS MT OBSC QFE753
URSS 152000Z 04003MPS 9999 BKN026 BKN070 19/18 Q1006 R02/010070 R06/010070 NOSIG RMK R06/07004MPS MT OBSC QFE753
URSS 151930Z 07002MPS 9999 SCT025 BKN080 20/17 Q1007 R02/010070 R06/010070 NOSIG RMK R06/08004MPS MT OBSC QFE753
URSS 151900Z 13003MPS 9999 SCT025 BKN080 22/17 Q1006 R02/010070 R06/010070 NOSIG RMK R06/11003G06MPS MT OBSC QFE753
URSS 151830Z 03003MPS 9999 SCT025 BKN080 20/18 Q1006 R02/010070 R06/010070 NOSIG RMK R06/07002MPS MT OBSC QFE753
URSS 151800Z 04003MPS 9999 SCT025 BKN080 20/18 Q1006 R02/010070 R06/010070 NOSIG RMK R06/08003MPS MT OBSC QFE753
URSS 151730Z 35001MPS 9999 1900W BKN026 BKN080 20/18 Q1006 R02/010070 R06/010070 NOSIG RMK R06/07003MPS MT OBSC QFE753
URSS 151700Z 05002MPS 9999 BKN080 20/18 Q1006 R02/010070 R06/010070 NOSIG RMK R06/12002MPS QFE753
URSS 151630Z 00000MPS 9999 SCT100 21/18 Q1005 R02/010070 R06/010070 NOSIG RMK R06/09001MPS QFE752
URSS 151600Z 07002MPS 040V110 9999 FEW050 22/18 Q1004 R02/010070 R06/010070 NOSIG RMK R06/10003MPS QFE752
URSS 151530Z 08003MPS 9999 FEW050 22/18 Q1004 R02/010070 R06/010070 NOSIG RMK R06/09005MPS QFE752
URSS 151500Z 02002MPS 9999 FEW050CB 23/18 Q1004 R02/190065 R06/190068 NOSIG RMK R06/09002MPS QFE752
URSS 151430Z 04002MPS 360V070 9999 SCT050CB 21/18 Q1004 R02/190065 R06/190068 TEMPO -TSRA BKN030CB RMK R06/06003MPS QFE752
URSS 151400Z 13002MPS 9999 -SHRA BKN044CB BKN090 21/18 Q1005 R02/010070 R06/010070 TEMPO -TSRA BKN030CB RMK R06/09002MPS QFE752
URSS 151330Z 04004MPS 9999 -SHRA SCT033CB OVC090 20/18 Q1003 R02/290362 R06/290362 TEMPO -TSRA BKN030CB RMK R06/07005MPS MT OBSC QFE751
URSS 151300Z 04004MPS 9999 SCT040CB 20/18 Q1004 R02/290362 R06/290362 NOSIG RMK R06/07005MPS MT OBSC QFE751
URSS 151230Z 03005MPS 9999 SCT040CB OVC130 20/18 Q1003 R02/290362 R06/290362 NOSIG RMK R06/31001MPS MT OBSC QFE751
URSS 151200Z 04005MPS 9999 -SHRA FEW025 BKN040CB OVC110 20/17 Q1004 R02/290362 R06/290362 NOSIG RMK R06/06005MPS MT OBSC QFE751
URSS 151130Z 04004MPS 9999 -SHRA FEW025 BKN040CB OVC110 19/17 Q1003 R02/290362 R06/290362 NOSIG RMK R06/06006MPS MT OBSC QFE751
URSS 151100Z 04005MPS 9999 -SHRA FEW016 BKN040CB OVC070 19/18 Q1004 R02/290362 R06/290362 NOSIG RMK R06/06005G08MPS MT OBSC QFE751
URSS 151030Z 03003MPS 340V050 5000 -SHRA FEW016 BKN040CB OVC070 20/18 Q1003 WS ALL RWY R02/290055 R06/290062 NOSIG RMK R06/04004G07MPS MT OBSC QFE751
URSS 151000Z 00000MPS 9999 -SHRA BKN045CB OVC100 21/18 Q1003 WS ALL RWY R02/290055 R06/290062 TEMPO -TSRA BKN030CB RMK R06/31002MPS QFE751